Assonet, Massachusetts
Current Conditions -  °F | °C
As of 12:52 AM on Thursday 23 Oct 2014 (Local Time) from KTAN Reporting Station
Thunderstorm Thunderstorm  
Wind Chill: 54°   Ceiling: 1900
Heat Index: 54°   Visibility: 4mi
Dew Point: 53°   Wind: 10mph
Humidity: 97%   Direction: 10°N
Pressure: 29.74"   Gusts: 18mph
Location:  41.8°N, 71.07°W
Report Text: KTAN 230452Z AUTO 01009G16KT 4SM VCTS RA BR FEW006 BKN019 OVC025 12/12 A2974 RMK AO2 LTG DSNT N AND NW SLP069 P0079 T01220117 401440111
Loading
Personal Weather Stations






























Interactive Weather Map
Tropical Storm Tracking
New forecast layout! Learn more

10-Day Weather Forecast

Advertisements
Track Severe Weather on mobile